createdAt,value
2022-10-05T00:00:42.443Z,16.70
2022-10-05T00:03:09.898Z,16.70
2022-10-05T00:05:36.704Z,16.70
2022-10-05T00:08:12.649Z,16.70
2022-10-05T00:10:40.207Z,16.70
2022-10-05T00:13:17.559Z,16.80
2022-10-05T00:15:44.445Z,16.70
2022-10-05T00:18:13.057Z,16.70
2022-10-05T00:20:40.459Z,16.70
2022-10-05T00:23:07.572Z,16.70
2022-10-05T00:25:34.338Z,16.70
2022-10-05T00:28:01.235Z,16.70
2022-10-05T00:30:31.343Z,16.80
2022-10-05T00:32:59.776Z,16.80
2022-10-05T00:35:29.453Z,16.70
2022-10-05T00:37:56.614Z,16.80
2022-10-05T00:40:29.218Z,16.80
2022-10-05T00:43:02.213Z,16.80
2022-10-05T00:45:29.847Z,16.80
2022-10-05T00:48:02.945Z,16.80
2022-10-05T00:50:32.901Z,16.70
2022-10-05T00:53:03.290Z,16.70
2022-10-05T00:55:39.130Z,16.80
2022-10-05T00:58:15.162Z,16.70
2022-10-05T01:00:45.660Z,16.70
2022-10-05T01:03:15.575Z,16.80
2022-10-05T01:05:42.427Z,16.80
2022-10-05T01:08:23.107Z,16.80
2022-10-05T01:10:56.008Z,16.80
2022-10-05T01:14:01.531Z,16.70
2022-10-05T01:16:28.403Z,16.70
2022-10-05T01:19:13.817Z,16.70
2022-10-05T01:21:43.157Z,16.70
2022-10-05T01:24:28.686Z,16.70
2022-10-05T01:27:09.791Z,16.70
2022-10-05T01:29:36.596Z,16.70
2022-10-05T01:32:15.702Z,16.70
2022-10-05T01:34:42.481Z,16.70
2022-10-05T01:37:17.458Z,16.70
2022-10-05T01:40:02.959Z,16.70
2022-10-05T01:42:48.313Z,16.80
2022-10-05T01:45:30.192Z,16.70
2022-10-05T01:48:05.029Z,16.70
2022-10-05T01:50:31.856Z,16.70
2022-10-05T01:53:24.688Z,16.70
2022-10-05T01:55:51.590Z,16.70
2022-10-05T01:58:28.970Z,16.80
2022-10-05T02:00:55.785Z,16.80
2022-10-05T02:03:24.760Z,16.70
2022-10-05T02:05:59.575Z,16.70
2022-10-05T02:08:53.647Z,16.70
2022-10-05T02:11:20.551Z,16.80
2022-10-05T02:14:08.153Z,16.80
2022-10-05T02:16:36.610Z,16.70
2022-10-05T02:19:07.923Z,16.80
2022-10-05T02:21:35.933Z,16.70
2022-10-05T02:24:07.118Z,16.80
2022-10-05T02:26:35.365Z,16.70
2022-10-05T02:29:11.652Z,16.80
2022-10-05T02:31:45.980Z,16.80
2022-10-05T02:34:23.074Z,16.80
2022-10-05T02:36:52.353Z,16.80
2022-10-05T02:39:21.094Z,16.90
2022-10-05T02:41:57.819Z,16.80
2022-10-05T02:44:37.106Z,16.80
2022-10-05T02:47:04.006Z,16.80
2022-10-05T02:49:47.156Z,16.80
2022-10-05T02:52:16.954Z,16.80
2022-10-05T02:54:47.433Z,16.80
2022-10-05T02:57:15.022Z,16.80
2022-10-05T02:59:47.739Z,16.80
2022-10-05T03:02:15.739Z,16.70
2022-10-05T03:04:45.458Z,16.80
2022-10-05T03:07:14.541Z,16.80
2022-10-05T03:09:45.360Z,16.80
2022-10-05T03:12:18.078Z,16.80
2022-10-05T03:15:00.931Z,16.90
2022-10-05T03:17:29.170Z,16.80
2022-10-05T03:20:18.873Z,16.80
2022-10-05T03:22:50.886Z,16.80
2022-10-05T03:25:37.990Z,16.80
2022-10-05T03:28:13.732Z,16.80
2022-10-05T03:30:46.776Z,16.80
2022-10-05T03:33:19.742Z,16.70
2022-10-05T03:35:52.739Z,16.80
2022-10-05T03:38:22.815Z,16.80
2022-10-05T03:41:08.794Z,16.70
2022-10-05T03:43:35.597Z,16.80
2022-10-05T03:46:05.595Z,16.70
2022-10-05T03:48:33.555Z,16.70
2022-10-05T03:51:08.181Z,16.70
2022-10-05T03:53:38.010Z,16.70
2022-10-05T03:56:06.442Z,16.70
2022-10-05T03:58:33.773Z,16.70
2022-10-05T04:01:04.905Z,16.80
2022-10-05T04:03:36.396Z,16.80
2022-10-05T04:06:10.826Z,16.70
2022-10-05T04:08:42.135Z,16.70
2022-10-05T04:11:13.634Z,16.70
2022-10-05T04:13:42.924Z,16.60
2022-10-05T04:16:29.979Z,16.60
2022-10-05T04:18:57.643Z,16.60
2022-10-05T04:21:25.347Z,16.60
2022-10-05T04:24:01.061Z,16.60
2022-10-05T04:26:31.108Z,16.60
2022-10-05T04:29:01.141Z,16.60
2022-10-05T04:31:58.326Z,16.60
2022-10-05T04:34:44.190Z,16.60
2022-10-05T04:37:14.851Z,16.60
2022-10-05T04:39:41.765Z,16.60
2022-10-05T04:42:13.970Z,16.60
2022-10-05T04:44:59.231Z,16.60
2022-10-05T04:47:36.251Z,16.70
2022-10-05T04:50:03.098Z,16.70
2022-10-05T04:52:43.455Z,16.70
2022-10-05T04:55:39.935Z,16.70
2022-10-05T04:58:07.078Z,16.70
2022-10-05T05:00:48.489Z,16.80
2022-10-05T05:03:18.529Z,16.70
2022-10-05T05:06:15.288Z,16.80
2022-10-05T05:08:38.898Z,16.80
2022-10-05T05:11:16.856Z,16.80
2022-10-05T05:13:46.149Z,16.80
2022-10-05T05:16:20.062Z,16.90
2022-10-05T05:19:05.332Z,16.80
2022-10-05T05:21:34.826Z,16.80
2022-10-05T05:24:21.076Z,16.80
2022-10-05T05:26:57.088Z,16.80
2022-10-05T05:29:42.855Z,16.80
2022-10-05T05:32:09.743Z,16.80
2022-10-05T05:34:37.140Z,16.80
2022-10-05T05:37:19.418Z,16.80
2022-10-05T05:39:46.893Z,16.80
2022-10-05T05:42:32.640Z,16.80
2022-10-05T05:45:00.499Z,16.80
2022-10-05T05:47:35.311Z,16.80
2022-10-05T05:50:21.693Z,16.80
2022-10-05T05:52:54.056Z,16.80
2022-10-05T05:55:30.433Z,16.80
2022-10-05T05:58:23.111Z,16.80
2022-10-05T06:00:50.039Z,16.80
2022-10-05T06:03:24.985Z,16.90
2022-10-05T06:05:53.404Z,16.90
2022-10-05T06:08:34.127Z,16.80
2022-10-05T06:11:38.969Z,16.80
2022-10-05T06:14:10.780Z,16.80
2022-10-05T06:16:46.515Z,16.80
2022-10-05T06:19:14.862Z,16.80
2022-10-05T06:21:43.275Z,16.80
2022-10-05T06:24:26.852Z,16.80
2022-10-05T06:27:12.470Z,16.80
2022-10-05T06:29:47.503Z,16.80
2022-10-05T06:32:35.111Z,16.90
2022-10-05T06:35:05.672Z,16.80
2022-10-05T06:37:42.818Z,16.90
2022-10-05T06:40:18.205Z,16.90
2022-10-05T06:43:23.771Z,16.90
2022-10-05T06:46:10.749Z,16.90
2022-10-05T06:49:27.982Z,17.00
2022-10-05T06:52:21.839Z,17.00
2022-10-05T06:54:55.629Z,17.00
2022-10-05T06:57:27.122Z,17.00
2022-10-05T06:59:54.363Z,17.00
2022-10-05T07:02:41.749Z,17.00
2022-10-05T07:05:08.813Z,17.00
2022-10-05T07:07:35.602Z,17.00
2022-10-05T07:10:15.295Z,17.00
2022-10-05T07:12:51.550Z,17.10
2022-10-05T07:15:29.503Z,17.10
2022-10-05T07:18:15.353Z,17.10
2022-10-05T07:20:46.939Z,17.20
2022-10-05T07:23:23.269Z,17.20
2022-10-05T07:25:52.455Z,17.20
2022-10-05T07:28:23.488Z,17.30
2022-10-05T07:30:54.860Z,17.30
2022-10-05T07:33:24.582Z,17.30
2022-10-05T07:36:14.801Z,17.40
2022-10-05T07:39:00.818Z,17.40
2022-10-05T07:41:37.425Z,17.50
2022-10-05T07:44:13.635Z,17.50
2022-10-05T07:46:52.127Z,17.50
2022-10-05T07:49:34.615Z,17.60
2022-10-05T07:52:02.321Z,17.70
2022-10-05T07:54:32.168Z,17.60
2022-10-05T07:56:58.982Z,17.70
2022-10-05T07:59:34.267Z,17.70
2022-10-05T08:02:12.580Z,17.80
2022-10-05T08:04:58.422Z,17.70
2022-10-05T08:07:25.335Z,17.80
2022-10-05T08:09:57.716Z,17.90
2022-10-05T08:12:48.470Z,17.90
2022-10-05T08:15:16.179Z,17.90
2022-10-05T08:17:45.980Z,18.00
2022-10-05T08:20:15.583Z,18.00
2022-10-05T08:22:43.829Z,18.10
2022-10-05T08:25:14.626Z,18.00
2022-10-05T08:27:53.755Z,18.00
2022-10-05T08:30:20.713Z,18.00
2022-10-05T08:32:50.484Z,17.90
2022-10-05T08:35:20.093Z,17.90
2022-10-05T08:37:46.881Z,17.90
2022-10-05T08:40:25.993Z,17.90
2022-10-05T08:42:58.727Z,17.90
2022-10-05T08:45:44.394Z,17.90
2022-10-05T08:48:29.692Z,17.90
2022-10-05T08:51:02.292Z,17.90
2022-10-05T08:53:49.351Z,18.00
2022-10-05T08:56:29.083Z,18.00
2022-10-05T08:58:58.986Z,18.10
2022-10-05T09:01:51.908Z,18.20
2022-10-05T09:04:18.749Z,18.20
2022-10-05T09:06:51.126Z,18.40
2022-10-05T09:09:30.131Z,18.60
2022-10-05T09:11:59.804Z,18.80
2022-10-05T09:14:35.538Z,19.00
2022-10-05T09:17:06.483Z,19.10
2022-10-05T09:19:36.407Z,19.20
2022-10-05T09:22:12.355Z,19.40
2022-10-05T09:24:48.479Z,19.50
2022-10-05T09:27:18.984Z,19.50
2022-10-05T09:30:05.311Z,19.50
2022-10-05T09:32:51.732Z,19.60
2022-10-05T09:35:26.386Z,19.60
2022-10-05T09:38:12.269Z,19.60
2022-10-05T09:40:58.063Z,19.60
2022-10-05T09:43:33.999Z,19.70
2022-10-05T09:46:03.730Z,19.80
2022-10-05T09:48:42.757Z,19.60
2022-10-05T09:51:24.842Z,19.70
2022-10-05T09:53:54.678Z,19.70
2022-10-05T09:56:38.854Z,19.60
2022-10-05T09:59:11.186Z,19.70
2022-10-05T10:01:41.322Z,19.60
2022-10-05T10:04:11.310Z,19.70
2022-10-05T10:06:52.204Z,19.70
2022-10-05T10:09:27.240Z,19.70
2022-10-05T10:12:14.286Z,19.50
2022-10-05T10:15:02.782Z,19.50
2022-10-05T10:17:36.034Z,19.50
2022-10-05T10:20:02.839Z,19.60
2022-10-05T10:22:45.002Z,19.70
2022-10-05T10:25:31.801Z,19.70
2022-10-05T10:28:28.225Z,19.80
2022-10-05T10:30:55.049Z,19.80
2022-10-05T10:33:27.931Z,19.90
2022-10-05T10:35:55.741Z,20.00
2022-10-05T10:38:28.693Z,20.00
2022-10-05T10:40:55.510Z,19.80
2022-10-05T10:43:40.079Z,19.70
2022-10-05T10:46:25.730Z,19.60
2022-10-05T10:48:56.226Z,19.50
2022-10-05T10:51:32.424Z,19.50
2022-10-05T10:54:09.816Z,19.40
2022-10-05T10:56:55.588Z,19.40
2022-10-05T10:59:34.460Z,19.50
2022-10-05T11:02:01.293Z,19.60
2022-10-05T11:04:34.213Z,19.60
2022-10-05T11:07:06.077Z,19.60
2022-10-05T11:09:38.938Z,19.60
2022-10-05T11:12:08.567Z,19.60
2022-10-05T11:14:54.287Z,19.60
2022-10-05T11:17:33.591Z,19.60
2022-10-05T11:20:04.872Z,19.70
2022-10-05T11:22:37.104Z,19.70
2022-10-05T11:25:33.315Z,19.70
2022-10-05T11:28:04.081Z,19.70
2022-10-05T11:30:37.005Z,19.60
2022-10-05T11:33:04.018Z,19.60
2022-10-05T11:35:49.490Z,19.60
2022-10-05T11:38:34.321Z,19.70
2022-10-05T11:41:02.260Z,19.90
2022-10-05T11:43:34.922Z,20.10
2022-10-05T11:46:07.601Z,20.00
2022-10-05T11:48:46.658Z,20.10
2022-10-05T11:51:13.508Z,20.20
2022-10-05T11:53:58.934Z,20.40
2022-10-05T11:59:19.061Z,20.50
2022-10-05T12:01:45.858Z,20.50
2022-10-05T12:04:31.403Z,20.60
2022-10-05T12:07:01.005Z,20.70
2022-10-05T12:10:06.930Z,20.90
2022-10-05T12:12:36.317Z,20.80
2022-10-05T12:15:06.141Z,20.90
2022-10-05T12:17:37.711Z,20.90
2022-10-05T12:20:23.244Z,20.70
2022-10-05T12:22:56.560Z,20.60
2022-10-05T12:25:23.671Z,20.60
2022-10-05T12:27:52.156Z,20.40
2022-10-05T12:30:26.489Z,20.40
2022-10-05T12:33:05.007Z,20.50
2022-10-05T12:35:48.534Z,20.40
2022-10-05T12:38:28.653Z,20.20
2022-10-05T12:40:58.956Z,20.00
2022-10-05T12:43:44.875Z,20.10
2022-10-05T12:46:18.166Z,19.90
2022-10-05T12:48:49.330Z,19.30
2022-10-05T12:51:34.912Z,19.10
2022-10-05T12:54:20.794Z,18.90
2022-10-05T12:56:55.556Z,18.80
2022-10-05T12:59:28.135Z,18.60
2022-10-05T13:01:55.062Z,18.30
2022-10-05T13:04:24.858Z,18.30
2022-10-05T13:07:13.931Z,18.30
2022-10-05T13:09:50.079Z,18.20
2022-10-05T13:12:36.255Z,18.20
2022-10-05T13:15:05.899Z,18.20
2022-10-05T13:17:32.680Z,18.30
2022-10-05T13:20:02.539Z,18.30
2022-10-05T13:22:46.575Z,18.40
2022-10-05T13:25:13.357Z,18.50
2022-10-05T13:27:41.284Z,18.50
2022-10-05T13:30:11.240Z,18.40
2022-10-05T13:32:40.930Z,18.60
2022-10-05T13:35:14.771Z,18.60
2022-10-05T13:38:01.776Z,18.60
2022-10-05T13:40:28.624Z,18.60
2022-10-05T13:43:06.177Z,18.70
2022-10-05T13:45:38.960Z,18.70
2022-10-05T13:48:24.678Z,18.60
2022-10-05T13:50:55.434Z,18.50
2022-10-05T13:53:34.187Z,18.50
2022-10-05T13:56:05.942Z,18.40
2022-10-05T13:58:52.123Z,18.40
2022-10-05T14:01:39.165Z,18.30
2022-10-05T14:04:18.209Z,18.20
2022-10-05T14:06:47.117Z,18.00
2022-10-05T14:09:21.811Z,17.90
2022-10-05T14:11:53.426Z,17.80
2022-10-05T14:14:25.584Z,17.60
2022-10-05T14:19:43.882Z,17.30
2022-10-05T14:22:10.711Z,17.20
2022-10-05T14:24:45.904Z,17.30
2022-10-05T14:27:20.229Z,17.40
2022-10-05T14:29:52.341Z,17.30
2022-10-05T14:32:21.737Z,17.40
2022-10-05T14:35:07.448Z,17.30
2022-10-05T14:37:44.450Z,17.40
2022-10-05T14:40:21.701Z,17.50
2022-10-05T14:42:48.561Z,17.50
2022-10-05T14:45:16.133Z,17.50
2022-10-05T14:47:45.893Z,17.40
2022-10-05T14:50:17.845Z,17.50
2022-10-05T14:52:51.717Z,17.40
2022-10-05T14:55:18.925Z,17.40
2022-10-05T14:57:53.201Z,17.50
2022-10-05T15:00:20.088Z,17.60
2022-10-05T15:03:05.615Z,17.60
2022-10-05T15:05:35.193Z,17.70
2022-10-05T15:08:08.761Z,17.70
2022-10-05T15:10:50.027Z,17.60
2022-10-05T15:13:16.845Z,17.50
2022-10-05T15:15:57.051Z,17.40
2022-10-05T15:18:31.694Z,17.40
2022-10-05T15:20:58.944Z,17.40
2022-10-05T15:23:27.229Z,17.30
2022-10-05T15:25:54.030Z,17.30
2022-10-05T15:28:30.378Z,17.30
2022-10-05T15:31:12.240Z,17.30
2022-10-05T15:33:41.485Z,17.20
2022-10-05T15:36:09.925Z,17.20
2022-10-05T15:38:42.845Z,17.00
2022-10-05T15:41:09.701Z,17.00
2022-10-05T15:43:55.475Z,17.00
2022-10-05T15:46:24.244Z,17.00
2022-10-05T15:49:11.315Z,16.90
2022-10-05T15:51:38.110Z,16.80
2022-10-05T15:54:43.358Z,16.70
2022-10-05T15:57:11.693Z,16.70
2022-10-05T15:59:41.667Z,16.60
2022-10-05T16:02:14.538Z,16.70
2022-10-05T16:04:47.886Z,16.70
2022-10-05T16:07:38.192Z,16.70
2022-10-05T16:10:21.603Z,16.60
2022-10-05T16:13:11.706Z,16.50
2022-10-05T16:15:38.533Z,16.60
2022-10-05T16:18:18.605Z,16.50
2022-10-05T16:21:03.986Z,16.40
2022-10-05T16:23:33.764Z,16.40
2022-10-05T16:26:09.135Z,16.40
2022-10-05T16:28:53.003Z,16.30
2022-10-05T16:31:38.974Z,16.40
2022-10-05T16:34:24.765Z,16.30
2022-10-05T16:36:54.390Z,16.20
2022-10-05T16:39:39.366Z,16.20
2022-10-05T16:42:12.005Z,16.20
2022-10-05T16:44:41.086Z,16.10
2022-10-05T16:47:22.918Z,16.00
2022-10-05T16:49:56.737Z,15.90
2022-10-05T16:52:23.606Z,15.90
2022-10-05T16:54:51.687Z,15.90
2022-10-05T16:57:22.464Z,15.80
2022-10-05T16:59:52.796Z,15.80
2022-10-05T17:02:25.698Z,15.70
2022-10-05T17:05:04.821Z,15.70
2022-10-05T17:07:50.421Z,15.70
2022-10-05T17:10:23.354Z,15.60
2022-10-05T17:12:56.036Z,15.50
2022-10-05T17:15:29.286Z,15.40
2022-10-05T17:18:03.202Z,15.30
2022-10-05T17:20:41.626Z,15.30
2022-10-05T17:23:30.315Z,15.30
2022-10-05T17:26:05.738Z,15.10
2022-10-05T17:28:36.220Z,15.10
2022-10-05T17:31:03.199Z,15.10
2022-10-05T17:33:30.333Z,15.10
2022-10-05T17:36:03.360Z,15.00
2022-10-05T17:38:30.125Z,15.00
2022-10-05T17:40:59.878Z,15.00
2022-10-05T17:43:27.193Z,15.00
2022-10-05T17:45:54.924Z,15.00
2022-10-05T17:48:37.312Z,15.10
2022-10-05T17:51:32.303Z,15.00
2022-10-05T17:54:17.842Z,15.00
2022-10-05T17:56:47.965Z,14.90
2022-10-05T17:59:33.689Z,14.80
2022-10-05T18:02:20.292Z,14.80
2022-10-05T18:05:05.991Z,14.70
2022-10-05T18:07:33.491Z,14.70
2022-10-05T18:10:00.428Z,14.60
2022-10-05T18:12:30.066Z,14.60
2022-10-05T18:15:09.087Z,14.50
2022-10-05T18:17:36.058Z,14.50
2022-10-05T18:20:13.885Z,14.50
2022-10-05T18:22:41.058Z,14.40
2022-10-05T18:25:09.594Z,14.40
2022-10-05T18:27:55.282Z,14.30
2022-10-05T18:30:22.727Z,14.30
2022-10-05T18:33:08.015Z,14.30
2022-10-05T18:35:44.200Z,14.30
2022-10-05T18:38:14.160Z,14.20
2022-10-05T18:40:49.880Z,14.10
2022-10-05T18:43:18.267Z,14.10
2022-10-05T18:45:45.179Z,14.10
2022-10-05T18:48:24.819Z,14.10
2022-10-05T18:51:07.212Z,14.10
2022-10-05T18:53:36.868Z,14.00
2022-10-05T18:56:04.569Z,14.00
2022-10-05T18:58:36.885Z,13.90
2022-10-05T19:01:03.649Z,13.90
2022-10-05T19:03:39.494Z,14.00
2022-10-05T19:06:12.118Z,14.00
2022-10-05T19:08:58.445Z,14.10
2022-10-05T19:11:44.249Z,14.20
2022-10-05T19:14:17.333Z,14.10
2022-10-05T19:17:02.628Z,14.10
2022-10-05T19:19:43.883Z,14.10
2022-10-05T19:22:13.752Z,14.00
2022-10-05T19:24:53.888Z,14.00
2022-10-05T19:27:43.282Z,14.00
2022-10-05T19:30:20.151Z,13.90
2022-10-05T19:33:05.817Z,13.90
2022-10-05T19:35:38.442Z,13.80
2022-10-05T19:38:10.671Z,13.70
2022-10-05T19:40:50.562Z,13.60
2022-10-05T19:43:26.383Z,13.60
2022-10-05T19:45:53.449Z,13.50
2022-10-05T19:48:23.938Z,13.50
2022-10-05T19:50:54.859Z,13.50
2022-10-05T19:53:25.741Z,13.40
2022-10-05T19:55:55.478Z,13.40
2022-10-05T19:58:25.959Z,13.40
2022-10-05T20:01:04.361Z,13.30
2022-10-05T20:03:31.838Z,13.30
2022-10-05T20:06:02.025Z,13.30
2022-10-05T20:08:38.943Z,13.20
2022-10-05T20:11:10.481Z,13.20
2022-10-05T20:13:37.574Z,13.20
2022-10-05T20:16:32.069Z,13.10
2022-10-05T20:19:17.417Z,13.10
2022-10-05T20:21:57.046Z,13.10
2022-10-05T20:24:27.661Z,13.00
2022-10-05T20:27:08.167Z,13.00
2022-10-05T20:29:40.304Z,13.00
2022-10-05T20:32:12.164Z,13.00
2022-10-05T20:34:42.728Z,13.00
2022-10-05T20:37:10.589Z,12.90
2022-10-05T20:39:37.518Z,12.90
2022-10-05T20:42:04.514Z,12.90
2022-10-05T20:44:31.525Z,12.80
2022-10-05T20:46:58.729Z,12.80
2022-10-05T20:49:26.466Z,12.80
2022-10-05T20:51:55.763Z,12.80
2022-10-05T20:54:23.014Z,12.80
2022-10-05T20:56:50.151Z,12.70
2022-10-05T20:59:16.985Z,12.70
2022-10-05T21:01:49.810Z,12.70
2022-10-05T21:04:20.124Z,12.70
2022-10-05T21:06:47.078Z,12.70
2022-10-05T21:09:14.966Z,12.70
2022-10-05T21:11:42.214Z,12.70
2022-10-05T21:14:09.322Z,12.60
2022-10-05T21:16:38.360Z,12.60
2022-10-05T21:19:07.032Z,12.60
2022-10-05T21:21:33.813Z,12.60
2022-10-05T21:24:00.776Z,12.60
2022-10-05T21:26:30.597Z,12.70
2022-10-05T21:28:58.378Z,12.60
2022-10-05T21:31:25.687Z,12.60
2022-10-05T21:33:52.509Z,12.50
2022-10-05T21:36:23.839Z,12.50
2022-10-05T21:38:51.929Z,12.50
2022-10-05T21:41:18.718Z,12.50
2022-10-05T21:43:45.559Z,12.50
2022-10-05T21:46:12.945Z,12.40
2022-10-05T21:48:39.835Z,12.50
2022-10-05T21:51:10.279Z,12.40
2022-10-05T21:53:38.579Z,12.40
2022-10-05T21:56:05.850Z,12.40
2022-10-05T21:58:32.699Z,12.40
2022-10-05T22:00:59.478Z,12.50
2022-10-05T22:03:26.366Z,12.40
2022-10-05T22:05:53.294Z,12.40
2022-10-05T22:08:24.618Z,12.40
2022-10-05T22:10:52.622Z,12.40
2022-10-05T22:13:19.407Z,12.40
2022-10-05T22:15:46.185Z,12.40
2022-10-05T22:18:13.498Z,12.40
2022-10-05T22:20:40.327Z,12.40
2022-10-05T22:23:07.091Z,12.40
2022-10-05T22:25:34.250Z,12.30
2022-10-05T22:28:01.473Z,12.40
2022-10-05T22:30:28.442Z,12.30
2022-10-05T22:32:55.235Z,12.30
2022-10-05T22:35:22.045Z,12.30
2022-10-05T22:37:48.801Z,12.30
2022-10-05T22:40:15.671Z,12.30
2022-10-05T22:42:42.539Z,12.30
2022-10-05T22:45:09.340Z,12.20
2022-10-05T22:47:36.183Z,12.20
2022-10-05T22:50:03.053Z,12.20
2022-10-05T22:52:29.880Z,12.20
2022-10-05T22:54:56.634Z,12.20
2022-10-05T22:57:23.467Z,12.20
2022-10-05T22:59:50.368Z,12.20
2022-10-05T23:02:18.773Z,12.10
2022-10-05T23:04:45.976Z,12.10
2022-10-05T23:07:12.942Z,12.10
2022-10-05T23:09:39.748Z,12.00
2022-10-05T23:12:06.540Z,12.00
2022-10-05T23:14:33.479Z,12.00
2022-10-05T23:17:00.430Z,12.00
2022-10-05T23:19:27.278Z,11.90
2022-10-05T23:21:54.084Z,11.90
2022-10-05T23:24:20.973Z,11.90
2022-10-05T23:26:47.762Z,11.90
2022-10-05T23:29:14.719Z,11.80
2022-10-05T23:31:41.478Z,11.80
2022-10-05T23:34:08.280Z,11.80
2022-10-05T23:36:36.045Z,11.70
2022-10-05T23:39:02.958Z,11.70
2022-10-05T23:41:29.753Z,11.70
2022-10-05T23:43:56.573Z,11.60
2022-10-05T23:46:23.521Z,11.60
2022-10-05T23:48:50.489Z,11.60
2022-10-05T23:51:17.437Z,11.60
2022-10-05T23:53:44.283Z,11.60
2022-10-05T23:56:11.079Z,11.60
2022-10-05T23:58:37.946Z,11.60
